logo
App data

Ubersoldier II

Deal another deadly blow to fascism!
Store | Hub | SteamDB | Site
Developer: Burut CT Publisher: Strategy First
Genre: Action
Languages: English
Tags: Action (35), FPS (23), World War II (16), Shooter (14), Singleplayer (11), First-Person (8)
Category: Single-player
Release date: Mar 25, 2014
Price: $0.99 90%
Old userscore: 73% Metascore: 62%
Owners: 100,000 .. 200,000
Followers: 687
Peak concurrent players yesterday: 2
Playtime total: 02:02 (average) 01:54 (median)

Steam Spy is still in beta, so expect major bugs.

Owners data:

Access restricted.

This feature is only available to users with special access rights. Sorry.

If you want to proceed, you need to register or log in first and then back Steam Spy on Patreon. Look for Indie or Pro pledge.

Don't forget to use the same email as on Steam Spy!

Audience in 2 weeks:

Access restricted.

This feature is only available to users with special access rights. Sorry.

If you want to proceed, you need to register or log in first and then back Steam Spy on Patreon. Look for Indie or Pro pledge.

Don't forget to use the same email as on Steam Spy!

Peak daily concurrent players:

CCU data courtesy of SteamDB. Used with permission.

Hourly concurrent players:

Daily Twitch stats:

Hourly Twitch stats:

YouTube:

The views data is based on top 50 videos uploaded last week. Actual number of views might be more than the number shown.

The displayed number of videos uploaded yesterday is limited to 50, so if there were more videos uploaded, the number will still show 50.

If the game has commonly used word as its name (like "FEAR" or "Volume") its number of Youtube views might be wrong.

Games similar to this one:

# Game Release date
Price
Score rank
(Userscore / Metascore)
Owners
Players
Playtime (Median)
1 A Game of Thrones - Genesis Sep 28, 2011 $9.99N/A (N/A)100,000 .. 200,0000%00:00 (00:00)
2 Devil's Dare 悪魔の挑戦 Oct 21, 2014 $12.99N/A (N/A)20,000 .. 50,0000%00:00 (00:00)
3 BossConstructor Oct 24, 2016 $14.99N/A (N/A)0 .. 20,0000%00:00 (00:00)
4 Lost in Paradise Aug 20, 2015 $2.99N/A (N/A)20,000 .. 50,0000%00:00 (00:00)
5 Purgatory Jun 22, 2016 $0.99N/A (N/A)200,000 .. 500,0000.07%03:06 (01:02)
6 Chaser Jul 16, 2010 $4.99N/A (N/A/66%)100,000 .. 200,0001.2%01:30 (01:00)
7 Meltdown Jun 5, 2014 $6.99N/A (N/A)50,000 .. 100,0000%00:00 (00:00)
8 Kalimba Apr 22, 2015 $9.99N/A (N/A/81%)0 .. 20,0003.7%01:12 (00:24)
9 Revolution Under Siege Gold Jul 2, 2015 $6.24N/A (N/A)0 .. 20,0000%00:00 (00:00)
10 Meridian: Squad 22 Aug 11, 2016 $14.99N/A (N/A)0 .. 20,0000%00:00 (00:00)
11 Hunting Unlimited 2008 Jan 29, 2008 $9.99N/A (N/A)20,000 .. 50,0000%00:00 (00:00)
12 Tank Operations: European Campaign Nov 22, 2013 $19.99N/A (N/A)20,000 .. 50,0000%00:00 (00:00)
13 Supreme Ruler Ultimate Oct 17, 2014 $19.99N/A (N/A)20,000 .. 50,0003.85%18:18 (06:06)
14 Adventure in the Tower of Flight Dec 23, 2015 $4.99N/A (N/A)0 .. 20,0000%00:00 (00:00)
15 Pharaoh Rebirth+ Mar 17, 2016 $9.99N/A (N/A)0 .. 20,0000%00:00 (00:00)
16 Zafehouse: Diaries Sep 6, 2013 $1.99N/A (N/A)50,000 .. 100,0000%00:00 (00:00)
17 The Stalin Subway: Red Veil Oct 24, 2014 $2.99N/A (N/A)50,000 .. 100,0000%00:00 (00:00)
18 Solar Shifter EX Sep 11, 2015 $4.99N/A (N/A)20,000 .. 50,0000%00:00 (00:00)
19 Avaris 2: The Return of the Empress Dec 15, 2015 $7.99N/A (N/A)0 .. 20,0000%00:00 (00:00)
20 Skyward Collapse May 23, 2013 $4.99N/A (N/A/64%)100,000 .. 200,0000%00:00 (00:00)
21 Sky Gamblers: Storm Raiders Jan 7, 2015 $9.99N/A (N/A)0 .. 20,0000%00:00 (00:00)
22 King of Dragon Pass Jul 28, 2015 $11.99N/A (N/A)20,000 .. 50,0000.88%00:13 (00:04)
23 Galaxy Admirals Jan 17, 2017 $1.99N/A (N/A)50,000 .. 100,0000%00:00 (00:00)
24 Pain Train 2 Mar 16, 2017 $9.99N/A (N/A)20,000 .. 50,00011.92%03:35 (03:46)
25 Arma Tactics Oct 1, 2013 $8.99N/A (N/A/47%)200,000 .. 500,0000.34%03:48 (02:31)
26 Neon Shadow Aug 25, 2016 $4.99N/A (N/A)0 .. 20,0000%00:00 (00:00)
27 The Bluecoats: North vs South May 10, 2012 $4.99N/A (N/A)50,000 .. 100,0000%00:00 (00:00)
28 Quick Slick Deadly Sep 21, 2015 $1.99N/A (N/A)20,000 .. 50,0000%00:00 (00:00)
29 Lethal VR Nov 8, 2016 $14.99N/A (N/A/66%)0 .. 20,0000%00:00 (00:00)
30 Hegemony Gold: Wars of Ancient Greece Mar 30, 2012 $14.99N/A (N/A)20,000 .. 50,0000%00:00 (00:00)
31 Collapse Apr 11, 2014 $19.99N/A (N/A)50,000 .. 100,0000%00:00 (00:00)
32 Shadows of War Jan 2, 2015 $2.99N/A (N/A)20,000 .. 50,0000%00:00 (00:00)
33 Sim Junta Aug 18, 2015 $0.49N/A (N/A)0 .. 20,0000%00:00 (00:00)
34 ROD: Revolt Of Defense Aug 12, 2016 $0.99N/A (N/A)20,000 .. 50,0002.56%03:51 (01:17)
35 Carrier Command: Gaea Mission Sep 28, 2012 $32.99N/A (N/A/60%)200,000 .. 500,0000%00:00 (00:00)
36 The Entente Gold Jun 16, 2014 $1.99N/A (N/A)50,000 .. 100,0000%00:00 (00:00)
37 Star Traders: 4X Empires Dec 16, 2014 $9.99N/A (N/A)0 .. 20,0000%00:00 (00:00)
38 Ninjahtic Jul 6, 2015 $1.99N/A (N/A)0 .. 20,0000%00:00 (00:00)
39 Beasts Battle Jun 15, 2016 $1.99N/A (N/A)20,000 .. 50,0000%00:00 (00:00)
40 Making History II: The War of the World Aug 27, 2010 $14.99N/A (N/A/38%)20,000 .. 50,0000%00:00 (00:00)
41 Battle Group 2 Jun 13, 2014 $7.99N/A (N/A)50,000 .. 100,0000%00:00 (00:00)
42 FEIST Jul 23, 2015 $9.99N/A (N/A/65%)20,000 .. 50,0000%00:00 (00:00)
43 Pike and Shot : Campaigns Aug 13, 2015 $15.99N/A (N/A)0 .. 20,0000%00:00 (00:00)
44 Defend Your Crypt Jul 21, 2016 $2.99N/A (N/A)0 .. 20,0000%00:00 (00:00)
45 Crusaders: Thy Kingdom Come Oct 8, 2009 $9.99N/A (N/A)20,000 .. 50,0000%00:00 (00:00)
46 Guns n Zombies Oct 30, 2014 $7.99N/A (N/A)100,000 .. 200,0000.43%00:21 (00:07)
47 Platypus II Aug 15, 2014 $6.99N/A (N/A)200,000 .. 500,0000.4%00:51 (00:45)
48 Nomad Fleet Apr 19, 2016 $4.99N/A (N/A)20,000 .. 50,0000%00:00 (00:00)
49 Envoy Mar 17, 2016 $4.99N/A (N/A)50,000 .. 100,0000%00:00 (00:00)
50 Ghost Master Dec 21, 2006 $4.99N/A (N/A/81%)100,000 .. 200,0000.39%00:13 (00:04)
51 Dusty Revenge:Co-Op Edition Feb 17, 2014 $14.99N/A (N/A)50,000 .. 100,0000.44%00:54 (00:18)
52 Sovereignty: Crown of Kings Feb 2, 2017 $7.49N/A (N/A)0 .. 20,0000%00:00 (00:00)
53 Starchaser: Priestess of the Night Sky Jul 24, 2015 $9.99N/A (N/A)0 .. 20,0000%00:00 (00:00)
54 Warlords Battlecry III May 17, 2004 $9.99N/A (N/A/73%)20,000 .. 50,0000%00:00 (00:00)
55 Divinity: Dragon Commander Aug 6, 2013 $39.99N/A (N/A)200,000 .. 500,0000.25%00:49 (00:16)
56 Othello Mar 19, 2015 $9.99N/A (N/A)20,000 .. 50,0000%00:00 (00:00)
57 Kick Ass Commandos Nov 17, 2016 $9.99N/A (N/A)20,000 .. 50,0000%00:00 (00:00)
58 UnSummoning: the Spectral Horde Dec 21, 2015 FreeN/A (N/A)0 .. 20,0000%00:00 (00:00)
59 Armada 2526 Gold Edition Feb 28, 2013 $19.99N/A (N/A/66%)20,000 .. 50,0000%00:00 (00:00)
60 Rooks Keep Dec 5, 2014 $7.99N/A (N/A)0 .. 20,0000%00:00 (00:00)
61 Planet of the Eyes Aug 24, 2015 $9.99N/A (N/A/66%)50,000 .. 100,0000%00:00 (00:00)
62 Crush Your Enemies Jul 13, 2016 $9.99N/A (N/A/63%)20,000 .. 50,0001.56%04:20 (01:26)
63 Western 1849 Reloaded Feb 10, 2017 $4.99N/A (N/A)20,000 .. 50,0000%00:00 (00:00)
64 MDK2 HD Jul 30, 2012 $14.99N/A (N/A/73%)0 .. 20,0000%00:00 (00:00)
65 Merchants of Kaidan Nov 10, 2014 $14.99N/A (N/A)100,000 .. 200,0000.43%04:09 (02:46)
66 Lux Delux May 1, 2015 $9.99N/A (N/A)20,000 .. 50,0001.2%00:01 (00:00)
67 Command: Northern Inferno Oct 22, 2015 $9.79N/A (N/A)0 .. 20,0000%00:00 (00:00)
68 Death's Hangover Jan 20, 2017 $4.99N/A (N/A)50,000 .. 100,0000.88%01:51 (00:37)
69 Kohan II: Kings of War Aug 24, 2011 $9.99N/A (N/A/81%)20,000 .. 50,0000%00:00 (00:00)
70 Yomi May 8, 2015 $14.99N/A (N/A)0 .. 20,0000%00:00 (00:00)
71 Royal Bounty HD Aug 10, 2015 $2.99N/A (N/A)0 .. 20,0000%00:00 (00:00)
72 FIVE: Guardians of David Nov 24, 2015 $9.99N/A (N/A/66%)20,000 .. 50,0000%00:00 (00:00)
73 Woodle Tree 2: Worlds Sep 16, 2016 $3.99N/A (N/A)50,000 .. 100,0000%00:00 (00:00)
74 Power of Defense Aug 4, 2010 $9.99N/A (N/A)0 .. 20,0000%00:00 (00:00)
75 Infinity Runner Jul 14, 2014 $6.99N/A (N/A/56%)0 .. 20,0000%00:00 (00:00)
76 Robotex Nov 19, 2014 $4.99N/A (N/A)100,000 .. 200,0000%00:00 (00:00)
77 Hydraulic Empire Jul 31, 2015 $7.99N/A (N/A)0 .. 20,0000%00:00 (00:00)
78 Zombie City Defense 2 Aug 19, 2016 $9.99N/A (N/A)0 .. 20,0000%00:00 (00:00)
79 Rush for Berlin Gold Oct 29, 2009 $4.99N/A (N/A/76%)20,000 .. 50,0000%00:00 (00:00)
80 Time Rifters Oct 21, 2014 $9.99N/A (N/A)0 .. 20,0000%00:00 (00:00)
81 Desert Ashes Nov 10, 2014 $4.99N/A (N/A)20,000 .. 50,0000%00:00 (00:00)
82 Defend The Highlands Nov 6, 2015 $9.99N/A (N/A)100,000 .. 200,0000%00:00 (00:00)
83 Mad Bullets Jun 10, 2016 $2.99N/A (N/A)0 .. 20,0002.56%00:01 (00:00)
84 Heroes of Might & Magic V: Hammers of Fate Oct 10, 2008 $9.99N/A (N/A/66%)100,000 .. 200,0000%00:00 (00:00)
85 Sneaky Sneaky Nov 12, 2014 $4.99N/A (N/A/63%)0 .. 20,0000%00:00 (00:00)
86 Foresight Nov 28, 2014 $4.99N/A (N/A)0 .. 20,0000%00:00 (00:00)
87 Pongo May 14, 2015 $0.99N/A (N/A)100,000 .. 200,0001.91%02:28 (02:28)
88 Age of Gladiators Feb 25, 2016 $9.99N/A (N/A)50,000 .. 100,0000%00:00 (00:00)
89 Livelock Aug 30, 2016 $9.99N/A (N/A/73%)20,000 .. 50,0000%00:00 (00:00)
90 The Stalin Subway Sep 19, 2014 $3.99N/A (N/A)20,000 .. 50,0000%00:00 (00:00)
91 Devils & Demons Oct 6, 2015 $9.99N/A (N/A)20,000 .. 50,0000%00:00 (00:00)
92 1775: Rebellion Sep 29, 2016 $24.99N/A (N/A)0 .. 20,0000%00:00 (00:00)
93 7 Grand Steps: What Ancients Begat Jun 7, 2013 $19.99N/A (N/A)100,000 .. 200,0000%00:00 (00:00)
94 Blue Estate The Game Apr 8, 2015 $12.99N/A (N/A/59%)50,000 .. 100,0000%00:00 (00:00)
95 Urban Empire Jan 20, 2017 $29.99N/A (N/A/62%)50,000 .. 100,0000%00:00 (00:00)
96 Codename: Panzers, Phase Two Jul 21, 2005 $3.74N/A (N/A/80%)20,000 .. 50,0003.7%00:55 (00:18)
97 Sudden Strike 2 Gold Aug 30, 2002 $5.99N/A (N/A)20,000 .. 50,0000%00:00 (00:00)
98 Rise of Venice Sep 27, 2013 $19.99N/A (N/A/66%)50,000 .. 100,0001.08%02:15 (00:45)
99 Zombies on a Plane Mar 25, 2016 $4.99N/A (N/A)20,000 .. 50,0000%00:00 (00:00)
100 Rise & Shine Jan 13, 2017 $14.99N/A (N/A)50,000 .. 100,0000.47%00:31 (00:10)
101 The Seven Years War (1756-1763) Oct 30, 2015 $9.99N/A (N/A)0 .. 20,0000%00:00 (00:00)
102 Voodoo Vince: Remastered Apr 18, 2017 $14.99N/A (N/A/63%)0 .. 20,0000%00:00 (00:00)
103 Men of War: Condemned Heroes Apr 12, 2012 $7.99N/A (N/A/57%)100,000 .. 200,0001.01%02:23 (01:35)
104 7,62 High Calibre Apr 30, 2014 $4.99N/A (N/A)50,000 .. 100,0000%00:00 (00:00)
105 Tallowmere Mar 3, 2015 $3.99N/A (N/A)20,000 .. 50,0000%00:00 (00:00)
106 Anarcute Jul 12, 2016 $14.99N/A (N/A/79%)0 .. 20,0000%00:00 (00:00)
107 Handsome Mr. Frog Aug 8, 2016 $0.99N/A (N/A)0 .. 20,0003.45%04:06 (01:22)
108 Star Ruler Sep 20, 2010 $9.99N/A (N/A)100,000 .. 200,0000%00:00 (00:00)
109 Enemy Mind Jun 6, 2014 $9.99N/A (N/A)200,000 .. 500,0000%00:00 (00:00)
110 Gates of Horizon Dec 18, 2014 N/AN/A (N/A)0 .. 20,0000%00:00 (00:00)
111 Heavy Fire: Shattered Spear Oct 23, 2015 $3.99N/A (N/A)0 .. 20,0000%00:00 (00:00)
112 Mr. Shifty Apr 13, 2017 $14.99N/A (N/A)50,000 .. 100,0000%00:00 (00:00)
113 Armada 2526 Apr 8, 2011 $14.99N/A (N/A/66%)0 .. 20,0000%00:00 (00:00)
114 Albedo: Eyes from Outer Space Apr 10, 2015 $14.99N/A (N/A/66%)50,000 .. 100,0000%00:00 (00:00)
115 Hail to the King: Deathbat Oct 30, 2014 $5.99N/A (N/A)0 .. 20,0000%00:00 (00:00)
116 Tcheco in the Castle of Lucio Jun 22, 2015 $0.99N/A (N/A)50,000 .. 100,0000%00:00 (00:00)
117 Audio Arena Jul 25, 2016 $6.99N/A (N/A)0 .. 20,0000%00:00 (00:00)
118 Elven Legacy Apr 7, 2009 $4.99N/A (N/A/71%)50,000 .. 100,0000.71%00:40 (00:13)
119 Major Mayhem Feb 24, 2014 $4.99N/A (N/A)20,000 .. 50,0001.89%00:43 (00:28)
120 Gold Rush! Anniversary Nov 7, 2014 $5.99N/A (N/A)100,000 .. 200,0000.25%00:01 (00:00)
121 Gridberd Sep 7, 2015 $6.99N/A (N/A)200,000 .. 500,0000.13%04:03 (01:21)
122 GIBZ Apr 7, 2017 $7.99N/A (N/A)20,000 .. 50,0004.65%01:11 (00:39)
123 Making History: The Calm & the Storm Mar 13, 2007 $4.99N/A (N/A/70%)50,000 .. 100,0000%00:00 (00:00)
124 McDROID Sep 5, 2014 $9.99N/A (N/A)0 .. 20,0000%00:00 (00:00)
125 Legions of Steel Jul 16, 2015 $4.99N/A (N/A/64%)0 .. 20,0000%00:00 (00:00)
126 Below Kryll Sep 7, 2015 $4.99N/A (N/A)0 .. 20,0000%00:00 (00:00)
127 Marvel: Ultimate Alliance 2 Jul 26, 2016 N/AN/A (N/A)0 .. 20,0000%00:00 (00:00)
128 Sid Meier’s Ace Patrol Aug 27, 2013 $4.99N/A (N/A)500,000 .. 1,000,0000%00:00 (00:00)
129 Gold Rush! Classic Jul 25, 2014 $2.99N/A (N/A)200,000 .. 500,0000.24%00:53 (00:33)
130 Assassin’s Creed Chronicles: India Jan 12, 2016 $9.99N/A (N/A)20,000 .. 50,0003.06%03:10 (03:10)
131 Gurgamoth Feb 16, 2016 $4.99N/A (N/A)20,000 .. 50,0000%00:00 (00:00)
132 Anodyne Mar 22, 2013 $4.99N/A (N/A/75%)100,000 .. 200,0000%00:00 (00:00)
133 The Few Jun 18, 2014 $7.99N/A (N/A)20,000 .. 50,0000%00:00 (00:00)
134 Counter Spell Oct 5, 2015 $9.99N/A (N/A)0 .. 20,0000%00:00 (00:00)
135 Lethe - Episode One Aug 1, 2016 $14.99N/A (N/A)0 .. 20,0000%00:00 (00:00)
136 Afghanistan '11 Mar 23, 2017 $9.89N/A (N/A)0 .. 20,0009.09%07:55 (02:38)
137 Call of Duty: Black Ops - Mac Edition Sep 27, 2012 $19.99N/A (N/A)50,000 .. 100,0001.14%00:58 (00:19)
138 Wars and Warriors: Joan of Arc Feb 7, 2004 $6.99N/A (N/A/60%)20,000 .. 50,0000%00:00 (00:00)
139 Human Extinction Simulator Jan 21, 2015 $19.99N/A (N/A)0 .. 20,0000%00:00 (00:00)
140 CTU: Counter Terrorism Unit Apr 22, 2016 $4.99N/A (N/A)0 .. 20,0000%00:00 (00:00)
141 Bullet Sorrow VR Apr 17, 2017 $19.99N/A (N/A)0 .. 20,0009.09%00:34 (00:11)
142 Demolition Inc. Sep 19, 2011 $5.99N/A (N/A)50,000 .. 100,0000%00:00 (00:00)
143 Rex Rocket Aug 5, 2014 $4.99N/A (N/A)20,000 .. 50,0000%00:00 (00:00)
144 Flywrench Aug 24, 2015 $6.99N/A (N/A)0 .. 20,0000%00:00 (00:00)
145 Steel Rain Dec 3, 2015 $9.99N/A (N/A)0 .. 20,0000%00:00 (00:00)
146 Pigmentone Jul 8, 2016 $1.99N/A (N/A)0 .. 20,0000%00:00 (00:00)
147 Age of Wonders Oct 2010 $5.99N/A (N/A)100,000 .. 200,0000%00:00 (00:00)
148 Battlepillars Gold Edition Apr 28, 2014 $4.99N/A (N/A)20,000 .. 50,0000%00:00 (00:00)
149 Flashpoint Campaigns: Red Storm Player's Edition Oct 9, 2013 $14.49N/A (N/A)0 .. 20,0000%00:00 (00:00)
150 Dandy: Or a Brief Glimpse Into the Life of the Candy Alchemist Aug 4, 2015 $9.99N/A (N/A)0 .. 20,0000%00:00 (00:00)
151 Slash or Die Jun 3, 2016 $2.99N/A (N/A)20,000 .. 50,0000.5%04:03 (01:21)
152 The Kings' Crusade Oct 8, 2010 $9.99N/A (N/A/71%)50,000 .. 100,0000%00:00 (00:00)
153 Ku: Shroud of the Morrigan Mar 17, 2014 $4.99N/A (N/A)20,000 .. 50,0000%00:00 (00:00)
154 Defense Zone 3 Ultra HD Dec 14, 2016 $3.99N/A (N/A)20,000 .. 50,0000%00:00 (00:00)
155 Superstatic Sep 15, 2015 $4.99N/A (N/A)0 .. 20,0000%00:00 (00:00)
156 TableTop Soccer Apr 22, 2016 $0.99N/A (N/A)0 .. 20,0000%00:00 (00:00)
157 Nuclear Dawn Sep 26, 2011 $9.99N/A (N/A/71%)200,000 .. 500,0000%00:00 (00:00)
158 Distant Worlds: Universe May 23, 2014 $14.99N/A (N/A/81%)50,000 .. 100,0001.49%03:55 (01:18)
159 A.R.E.S. Extinction Agenda EX Oct 3, 2014 $9.99N/A (N/A)0 .. 20,0000%00:00 (00:00)
160 Crossfire: Dungeons Jan 15, 2007 $0.51N/A (N/A)0 .. 20,0000%00:00 (00:00)
161 DreamBreak Jul 21, 2016 $6.99N/A (N/A/46%)20,000 .. 50,0002.33%00:01 (00:00)
162 Dangerous Waters Feb 7, 2006 $5.99N/A (N/A/82%)50,000 .. 100,0000%00:00 (00:00)
163 Dark Matter Oct 17, 2013 $9.99N/A (N/A)0 .. 20,0000%00:00 (00:00)
164 Super Trench Attack! Jul 24, 2014 $4.99N/A (N/A)50,000 .. 100,0000.38%02:25 (00:48)
165 AirMech Command Mar 8, 2017 $19.99N/A (N/A)0 .. 20,0000%00:00 (00:00)
166 Megamagic: Wizards of the Neon Age Apr 20, 2016 $9.99N/A (N/A/67%)20,000 .. 50,0000%00:00 (00:00)
167 PAC-MAN and the Ghostly Adventures Oct 29, 2013 $19.99N/A (N/A)0 .. 20,0000%00:00 (00:00)
168 World War 2: Time of Wrath Jun 6, 2014 $4.99N/A (N/A)20,000 .. 50,0000%00:00 (00:00)
169 Bombshell Jan 29, 2016 $34.99N/A (N/A/43%)20,000 .. 50,0000%00:00 (00:00)
170 Hybrid Wars Sep 29, 2016 $6.99N/A (N/A/54%)0 .. 20,0000%00:00 (00:00)
171 One Star Apr 17, 2017 $2.99N/A (N/A)50,000 .. 100,0000%00:00 (00:00)
172 Sang-Froid - Tales of Werewolves Apr 5, 2013 FreeN/A (N/A/79%)200,000 .. 500,0000%00:00 (00:00)
173 Warrior Kings Apr 24, 2014 $9.99N/A (N/A/73%)20,000 .. 50,0000%00:00 (00:00)
174 BattleLore: Command Nov 25, 2014 $6.99N/A (N/A)0 .. 20,0000%00:00 (00:00)
175 Reverse Crawl Sep 24, 2015 $5.99N/A (N/A)20,000 .. 50,0000%00:00 (00:00)
176 Mysterium: A Psychic Clue Game Jan 12, 2017 $6.99N/A (N/A)50,000 .. 100,0000.35%00:01 (00:00)
177 Jagged Alliance: Crossfire Aug 24, 2012 $14.99N/A (N/A/63%)100,000 .. 200,0000%00:00 (00:00)
178 The Fall May 30, 2014 $9.99N/A (N/A/76%)200,000 .. 500,0000.24%00:25 (00:08)
179 Armed with Wings: Rearmed Jun 1, 2017 $9.99N/A (N/A)20,000 .. 50,0000%00:00 (00:00)
180 TRON RUN/r Feb 16, 2016 $19.99N/A (N/A)0 .. 20,0000%00:00 (00:00)
181 Battle Time Sep 29, 2016 $0.99N/A (N/A)50,000 .. 100,0000%00:00 (00:00)
182 Pride of Nations Jun 7, 2011 $4.79N/A (N/A/70%)20,000 .. 50,0000%00:00 (00:00)
183 Avoid - Sensory Overload Apr 8, 2014 $4.99N/A (N/A)20,000 .. 50,0000%00:00 (00:00)
184 ManaCollect Apr 17, 2015 $6.99N/A (N/A)0 .. 20,0000%00:00 (00:00)
185 Infection: Humanity's Last Gasp May 26, 2016 $9.99N/A (N/A)0 .. 20,0000%00:00 (00:00)
186 Quarantine Feb 9, 2017 $9.99N/A (N/A)0 .. 20,0000%00:00 (00:00)
187 RISK: Factions Mar 8, 2011 $9.99N/A (N/A/77%)50,000 .. 100,0004.55%01:21 (01:21)
188 Panzer Tactics HD May 22, 2014 $9.99N/A (N/A/69%)20,000 .. 50,0000%00:00 (00:00)
189 Near Death Aug 2, 2016 $14.99N/A (N/A/70%)20,000 .. 50,0002.04%01:08 (00:22)
190 Rack N Ruin Sep 1, 2015 $9.99N/A (N/A)0 .. 20,0000%00:00 (00:00)
191 Auro: A Monster-Bumping Adventure Apr 13, 2016 $6.99N/A (N/A)0 .. 20,0000%00:00 (00:00)
192 Supreme Ruler 2020 Gold Jul 9, 2009 $9.99N/A (N/A/65%)50,000 .. 100,0000%00:00 (00:00)
193 Platformines Mar 28, 2014 $9.99N/A (N/A/67%)100,000 .. 200,0000%00:00 (00:00)
194 There Came an Echo Feb 24, 2015 $14.99N/A (N/A/58%)20,000 .. 50,0000%00:00 (00:00)
195 Gnumz: Masters of Defense Dec 21, 2015 $4.99N/A (N/A)20,000 .. 50,0000%00:00 (00:00)
196 Chicken Invaders 2 Mar 4, 2016 $3.99N/A (N/A)0 .. 20,0000%00:00 (00:00)
197 Lost Planet: Extreme Condition Jun 26, 2007 $14.99N/A (N/A/66%)200,000 .. 500,0000.41%00:57 (00:19)
198 Hot Tin Roof: The Cat That Wore A Fedora Feb 20, 2015 $14.99N/A (N/A/66%)100,000 .. 200,0000.83%02:59 (01:59)
199 Ys VI: The Ark of Napishtim Apr 28, 2015 $19.99N/A (N/A/76%)50,000 .. 100,0001.1%09:12 (03:04)
200 Disposable Heroes Mar 22, 2016 $4.99N/A (N/A)20,000 .. 50,0000%00:00 (00:00)
201 A Blind Legend Apr 7, 2016 $6.99N/A (N/A)0 .. 20,0000%00:00 (00:00)
202 VelocityUltra Dec 12, 2013 $9.99N/A (N/A)50,000 .. 100,0000%00:00 (00:00)
203 Airship Dragoon Aug 26, 2014 $19.99N/A (N/A)0 .. 20,0000%00:00 (00:00)
204 Nightside Aug 6, 2015 $4.99N/A (N/A)20,000 .. 50,0001.39%01:01 (00:20)
205 Vector Strain Dec 9, 2015 $4.99N/A (N/A)20,000 .. 50,0000%00:00 (00:00)
206 Eador: Genesis Oct 14, 2013 $5.99N/A (N/A)50,000 .. 100,0000.72%03:06 (01:02)
207 Psichodelya Aug 8, 2014 $1.99N/A (N/A)100,000 .. 200,0000%00:00 (00:00)
208 Ceres Oct 16, 2015 $19.99N/A (N/A/74%)0 .. 20,0000%00:00 (00:00)
209 Code of Princess Apr 14, 2016 $14.99N/A (N/A/53%)0 .. 20,0000%00:00 (00:00)
210 Civil War: Battle of Petersburg Feb 8, 2017 $0.99N/A (N/A)0 .. 20,0000%00:00 (00:00)
211 Painkiller Hell & Damnation Oct 31, 2012 $19.99N/A (N/A/64%)500,000 .. 1,000,0000.84%04:09 (04:42)
212 Hero Generations Apr 10, 2015 $5.99N/A (N/A)20,000 .. 50,0000%00:00 (00:00)
213 Samudai Feb 9, 2015 $2.99N/A (N/A)20,000 .. 50,0000%00:00 (00:00)
214 Space Food Truck Mar 25, 2016 $9.99N/A (N/A)20,000 .. 50,0000%00:00 (00:00)
215 Blue Effect VR Sep 29, 2016 $14.99N/A (N/A)0 .. 20,0000%00:00 (00:00)
216 Gatling Gears Aug 30, 2011 $9.99N/A (N/A)20,000 .. 50,0000%00:00 (00:00)
217 Strike Suit Zero: Director's Cut Apr 8, 2014 $19.99N/A (N/A)20,000 .. 50,0000%00:00 (00:00)
218 Star Hammer: The Vanguard Prophecy Jun 4, 2015 $4.99N/A (N/A/69%)0 .. 20,0000%00:00 (00:00)
219 Sol 0: Mars Colonization Jan 15, 2016 $3.99N/A (N/A)20,000 .. 50,0004.55%05:34 (01:51)
220 Sorcerer King: Rivals Sep 22, 2016 $19.99N/A (N/A)20,000 .. 50,0000%00:00 (00:00)
221 Age of Wonders Shadow Magic Oct 2010 $9.99N/A (N/A/82%)100,000 .. 200,0000.78%00:30 (00:10)
222 Disciples Sacred Lands Gold Oct 7, 2014 $7.99N/A (N/A)50,000 .. 100,0000%00:00 (00:00)
223 Executive Assault Jul 17, 2015 $12.99N/A (N/A)50,000 .. 100,0002.67%00:50 (00:33)
224 Kidnapped Aug 4, 2015 $2.99N/A (N/A)100,000 .. 200,0000%00:00 (00:00)
225 System Crash Mar 10, 2016 $14.99N/A (N/A)0 .. 20,0000%00:00 (00:00)
226 Sword of the Stars II: Enhanced Edition Nov 30, 2012 $19.99N/A (N/A/65%)100,000 .. 200,0000%00:00 (00:00)
227 Shadow Blade: Reload Aug 10, 2015 $14.99N/A (N/A/70%)20,000 .. 50,0000%00:00 (00:00)
228 Run or Die Dec 11, 2014 $4.99N/A (N/A)20,000 .. 50,0000%00:00 (00:00)
229 NOBUNAGA'S AMBITION: Sphere of Influence - Ascension / 信長の野望・創造 戦国立志伝 Mar 23, 2016 $59.99N/A (N/A)100,000 .. 200,0000%00:00 (00:00)
230 Blasting Agent: Ultimate Edition Aug 17, 2016 $2.99N/A (N/A)0 .. 20,0000%00:00 (00:00)
231 Rocket Knight May 11, 2010 $14.99N/A (N/A/63%)0 .. 20,0000%00:00 (00:00)
232 Bedlam Oct 13, 2015 $12.99N/A (N/A/54%)100,000 .. 200,0000%00:00 (00:00)
233 Spud's Quest Jul 31, 2014 $7.99N/A (N/A)0 .. 20,0000%00:00 (00:00)
234 Scourge of War: Waterloo Nov 19, 2015 $19.99N/A (N/A)0 .. 20,00020%00:55 (00:18)
235 Revenge of Roger Rouge Apr 22, 2016 $0.99N/A (N/A)20,000 .. 50,0000%00:00 (00:00)
236 Act of War: Direct Action Mar 12, 2008 $2.99N/A (N/A/82%)20,000 .. 50,0000%00:00 (00:00)
237 Chainsaw Warrior Oct 7, 2013 $4.99N/A (N/A)100,000 .. 200,0000%00:00 (00:00)
238 Spirits of Xanadu Mar 26, 2015 $0.99N/A (N/A)20,000 .. 50,0004.55%02:41 (03:12)
239 Super Furball May 13, 2014 $3.99N/A (N/A)0 .. 20,0000%00:00 (00:00)
240 Bubsy Two-Fur Jan 1, 1993 $4.99N/A (N/A)0 .. 20,0000%00:00 (00:00)
241 Bleed Jul 3, 2013 $4.99N/A (N/A)100,000 .. 200,0000.43%00:23 (00:07)
242 Heavy Fire: Afghanistan Aug 15, 2014 $2.99N/A (N/A)50,000 .. 100,0000%00:00 (00:00)
243 Trigger Runners Mar 3, 2016 $1.99N/A (N/A)0 .. 20,0000%00:00 (00:00)
244 Legend (1994) Apr 1, 1994 $2.49N/A (N/A)0 .. 20,0000%00:00 (00:00)
245 Scourge: Outbreak Apr 2, 2014 $7.99N/A (N/A)100,000 .. 200,0000.42%00:01 (00:00)
246 Overruled! Sep 15, 2015 $12.99N/A (N/A)20,000 .. 50,0000%00:00 (00:00)
247 The Asskickers-Steam Edition Feb 6, 2015 $9.99N/A (N/A)0 .. 20,0000%00:00 (00:00)
248 The Juicer Sep 6, 2012 $0.99N/A (N/A)20,000 .. 50,0000%00:00 (00:00)
249 Child Of Ault Jan 24, 2017 $9.99N/A (N/A)0 .. 20,0000%00:00 (00:00)
250 Warlock 2: The Exiled Apr 10, 2014 $19.99N/A (N/A/73%)50,000 .. 100,0000%00:00 (00:00)
251 1849 May 8, 2014 $14.99N/A (N/A)20,000 .. 50,0000%00:00 (00:00)
252 The Tiny Tale 2 Jan 30, 2015 $6.99N/A (N/A)0 .. 20,0000%00:00 (00:00)
253 Toy Odyssey: The Lost and Found Sep 20, 2016 $14.99N/A (N/A/66%)20,000 .. 50,0000%00:00 (00:00)
254 Grim Seventh Jan 20, 2017 FreeN/A (N/A)0 .. 20,0000%00:00 (00:00)
255 Sengoku Sep 15, 2011 $1.99N/A (N/A/70%)100,000 .. 200,0000%00:00 (00:00)
256 Zoo Empire Aug 1, 2004 $6.99N/A (N/A/59%)0 .. 20,0000%00:00 (00:00)
257 Bet On Soldier Dec 5, 2014 $7.99N/A (N/A)50,000 .. 100,0000%00:00 (00:00)
258 Pharaonic Apr 28, 2016 $14.99N/A (N/A)20,000 .. 50,0000%00:00 (00:00)
259 Weird Hero Nov 18, 2016 $3.99N/A (N/A)0 .. 20,0000%00:00 (00:00)
260 Greed Corp Dec 10, 2010 $9.99N/A (N/A/76%)200,000 .. 500,0000%00:00 (00:00)
261 RIVE: Wreck, Hack, Die, Retry! Sep 13, 2016 $14.99N/A (N/A)200,000 .. 500,0000.18%01:31 (00:30)
262 Ironcast Mar 26, 2015 $14.99N/A (N/A/75%)20,000 .. 50,0000%00:00 (00:00)
263 Valley Aug 24, 2016 $19.99N/A (N/A)200,000 .. 500,0001.18%00:33 (00:41)
264 Codex of Victory Mar 16, 2017 $14.99N/A (N/A)0 .. 20,0000%00:00 (00:00)
265 Majesty Gold HD Sep 4, 2009 $9.99N/A (N/A)100,000 .. 200,0000%00:00 (00:00)
266 Deadly 30 Jan 8, 2014 $4.99N/A (N/A)100,000 .. 200,0000.31%00:51 (00:17)
267 Deadlings: Rotten Edition Nov 11, 2014 $3.99N/A (N/A)50,000 .. 100,0000%00:00 (00:00)
268 Spooky Cats Jun 4, 2015 $2.99N/A (N/A)20,000 .. 50,0002.38%03:16 (02:10)
269 Fatal Fight Jun 10, 2016 $2.99N/A (N/A)0 .. 20,0000%00:00 (00:00)
270 Warhammer 40,000: Dawn of War – Winter Assault Aug 7, 2007 $12.99N/A (N/A)500,000 .. 1,000,0000.31%02:57 (02:56)
271 rymdkapsel Jan 30, 2014 $7.99N/A (N/A/77%)0 .. 20,0000%00:00 (00:00)
272 Battlezone Gold Edition May 11, 2017 $34.99N/A (N/A)0 .. 20,0000%00:00 (00:00)
273 Zombie Zoeds May 20, 2015 $0.99N/A (N/A)200,000 .. 500,0000.38%03:56 (03:07)
274 Star Realms Mar 8, 2016 FreeN/A (N/A)100,000 .. 200,0000.81%24:16 (08:05)
275 ENSLAVED: Odyssey to the West Premium Edition Oct 24, 2013 $19.99N/A (N/A/70%)200,000 .. 500,0000.29%04:15 (02:09)
276 The Nightmare Cooperative Jul 16, 2014 $4.99N/A (N/A)50,000 .. 100,0000%00:00 (00:00)
277 Once Bitten, Twice Dead! Jul 17, 2015 $4.99N/A (N/A)20,000 .. 50,0000%00:00 (00:00)
278 Kill The Plumber Dec 31, 2015 $4.99N/A (N/A)0 .. 20,0000%00:00 (00:00)
279 Horizon Feb 6, 2014 $29.99N/A (N/A/58%)50,000 .. 100,0000%00:00 (00:00)
280 Disney Pirates of the Caribbean: At Worlds End Oct 6, 2014 $19.99N/A (N/A)0 .. 20,0000%00:00 (00:00)
281 Cultures - 8th Wonder of the World Mar 26, 2015 $4.99N/A (N/A)50,000 .. 100,0000.45%01:24 (00:28)
282 Blue Sheep Mar 31, 2016 $1.99N/A (N/A)0 .. 20,0000%00:00 (00:00)
283 Wild Guns Reloaded Jul 11, 2017 $14.99N/A (N/A)0 .. 20,0000%00:00 (00:00)
284 Zeno Clash 2 Apr 30, 2013 $14.99N/A (N/A)100,000 .. 200,0000%00:00 (00:00)
285 Olympia Rising Jul 23, 2015 $4.99N/A (N/A)20,000 .. 50,0000%00:00 (00:00)
286 Synonymy Mar 5, 2015 $1.99N/A (N/A)0 .. 20,0000%00:00 (00:00)
287 Arcane Sorcery Sep 15, 2015 FreeN/A (N/A)20,000 .. 50,0000%00:00 (00:00)
288 Eclipse: New Dawn for the Galaxy Sep 16, 2016 N/AN/A (N/A)0 .. 20,00050%00:02 (00:01)
289 Warp Mar 21, 2012 $9.99N/A (N/A)20,000 .. 50,0000%00:00 (00:00)
290 Perimeter: Emperor's Testament Aug 29, 2006 $3.99N/A (N/A/72%)20,000 .. 50,0000%00:00 (00:00)
291 Strategy & Tactics: Wargame Collection Apr 22, 2016 $9.99N/A (N/A)20,000 .. 50,0001.3%61:50 (20:36)
292 Mold on Pizza Sep 25, 2015 $5.99N/A (N/A)0 .. 20,0000%00:00 (00:00)
293 Extravaganza Rising Jul 21, 2016 N/AN/A (N/A)20,000 .. 50,0000%00:00 (00:00)
294 Monday Night Combat Jan 24, 2011 $4.99N/A (N/A/82%)200,000 .. 500,0000.29%00:09 (00:03)
295 Woolfe - The Red Hood Diaries Mar 17, 2015 $9.99N/A (N/A/55%)50,000 .. 100,0000.81%01:42 (00:34)
296 Survivor Squad: Gauntlets Nov 16, 2015 $4.99N/A (N/A)20,000 .. 50,0000%00:00 (00:00)
297 E.T. Armies Mar 3, 2016 $14.99N/A (N/A/54%)20,000 .. 50,0000%00:00 (00:00)
298 VRZ: Torment May 18, 2017 $9.99N/A (N/A)0 .. 20,0000%00:00 (00:00)
299 The Haunted: Hells Reach Oct 24, 2011 $8.99N/A (N/A/51%)50,000 .. 100,0000.89%00:12 (00:04)
300 The Last Federation Apr 18, 2014 $19.99N/A (N/A/72%)50,000 .. 100,0000%00:00 (00:00)
301 The Hive Aug 25, 2016 $9.99N/A (N/A)20,000 .. 50,0001.96%01:25 (00:28)
302 Island Defense Jul 23, 2015 $1.99N/A (N/A)100,000 .. 200,0000%00:00 (00:00)
303 Link Apr 22, 2016 $4.99N/A (N/A)0 .. 20,0000%00:00 (00:00)
304 Starscape Nov 3, 2008 $7.99N/A (N/A)20,000 .. 50,0000%00:00 (00:00)
305 Last Knight: Rogue Rider Edition Oct 3, 2014 $7.99N/A (N/A)20,000 .. 50,0000%00:00 (00:00)
306 Stonerid Aug 15, 2014 $4.99N/A (N/A)20,000 .. 50,0000%00:00 (00:00)
307 Blacksea Odyssey Jun 1, 2016 $9.99N/A (N/A/74%)20,000 .. 50,0000%00:00 (00:00)
308 Scapeland Mar 31, 2016 $3.99N/A (N/A)0 .. 20,0000%00:00 (00:00)
309 Fleet Command Oct 26, 2006 $5.99N/A (N/A)50,000 .. 100,0002.22%06:56 (02:18)
310 Stick it to The Man! Dec 13, 2013 $7.99N/A (N/A/83%)20,000 .. 50,0000%00:00 (00:00)
311 Commander: The Great War Jul 25, 2014 $9.89N/A (N/A)20,000 .. 50,0000%00:00 (00:00)
312 Star Trek: Judgment Rites May 8, 2015 $9.99N/A (N/A)0 .. 20,0000%00:00 (00:00)
313 Dawn of Andromeda May 4, 2017 $29.99N/A (N/A/70%)0 .. 20,0000%00:00 (00:00)
314 Wanderlust Adventures Aug 10, 2015 $9.99N/A (N/A)20,000 .. 50,0005.66%02:10 (02:09)
315 Wildlife Park 2 - Crazy Zoo Jul 17, 2014 $3.99N/A (N/A)0 .. 20,0005%00:19 (00:06)
316 Albino Lullaby: Episode 1 Sep 14, 2015 $9.99N/A (N/A)20,000 .. 50,0000%00:00 (00:00)
317 Klang Sep 22, 2016 $14.99N/A (N/A/71%)0 .. 20,0000%00:00 (00:00)
318 March of the Eagles Feb 18, 2013 $19.99N/A (N/A/71%)50,000 .. 100,0000%00:00 (00:00)
319 Space Colony: Steam Edition Apr 30, 2015 $14.99N/A (N/A/74%)50,000 .. 100,0000%00:00 (00:00)
320 Hyperspace Pinball Sep 30, 2015 $2.99N/A (N/A)0 .. 20,0000%00:00 (00:00)
321 The Aquatic Adventure of the Last Human Jan 19, 2016 $9.99N/A (N/A/76%)20,000 .. 50,0000%00:00 (00:00)
322 Imperium Galactica Mar 1, 1997 $1.24N/A (N/A)0 .. 20,0000%00:00 (00:00)
323 Stellar Impact Apr 12, 2012 $9.99N/A (N/A/74%)50,000 .. 100,0000%00:00 (00:00)
324 Royal Defense Nov 10, 2014 $4.99N/A (N/A)50,000 .. 100,0000%00:00 (00:00)
325 Colonial Conquest Jul 28, 2015 $9.99N/A (N/A)0 .. 20,0000%00:00 (00:00)
326 NOBUNAGA'S AMBITION: Sphere of Influence Sep 1, 2015 $59.99N/A (N/A/70%)20,000 .. 50,0008.33%00:10 (00:06)
327 BitMaster Oct 12, 2016 $2.99N/A (N/A)200,000 .. 500,0000.32%03:32 (02:21)
328 Supreme Ruler: Cold War Jul 29, 2011 $9.99N/A (N/A/63%)20,000 .. 50,0000%00:00 (00:00)
329 Shadow Ops: Red Mercury Jul 2, 2014 $6.99N/A (N/A/61%)50,000 .. 100,0001.72%00:08 (00:02)
330 Vietnam ‘65 Mar 5, 2015 $4.89N/A (N/A/81%)20,000 .. 50,0000%00:00 (00:00)
331 After The End: The Harvest Jun 2, 2017 $0.99N/A (N/A)20,000 .. 50,0000%00:00 (00:00)
332 Crazy Forest Jul 6, 2016 $4.99N/A (N/A)100,000 .. 200,0000%00:00 (00:00)
333 Commander: Conquest of the Americas Jul 30, 2010 $9.99N/A (N/A/68%)50,000 .. 100,0000%00:00 (00:00)
334 Spider: Rite of the Shrouded Moon Aug 6, 2015 $9.99N/A (N/A)20,000 .. 50,0000%00:00 (00:00)
335 TRON 2.0 Oct 10, 2014 $9.99N/A (N/A/84%)50,000 .. 100,0000%00:00 (00:00)
336 ESCHATOS Sep 18, 2015 $14.99N/A (N/A)0 .. 20,0000%00:00 (00:00)
337 Adventure World Aug 2, 2016 $4.99N/A (N/A)0 .. 20,0000%00:00 (00:00)
338 Caster Mar 19, 2009 $1.99N/A (N/A)200,000 .. 500,0000%00:00 (00:00)
339 Meridian: New World Sep 26, 2014 $6.99N/A (N/A/43%)100,000 .. 200,0000%00:00 (00:00)
340 Magnifico Dec 2, 2014 $0.49N/A (N/A)50,000 .. 100,0000%00:00 (00:00)
341 Cast of the Seven Godsends - Redux Jul 20, 2015 $9.99N/A (N/A)20,000 .. 50,0000%00:00 (00:00)
342 REDCON Apr 22, 2016 $5.99N/A (N/A)0 .. 20,0000%00:00 (00:00)
343 Supreme Commander Sep 28, 2011 $2.59N/A (N/A/86%)500,000 .. 1,000,0000.59%04:55 (08:51)
344 MoonBase Commander Feb 6, 2014 $5.99N/A (N/A/77%)20,000 .. 50,0000%00:00 (00:00)
345 Khet 2.0 Oct 1, 2014 $9.99N/A (N/A)50,000 .. 100,0001.96%00:01 (00:00)
346 Skyshine's BEDLAM Sep 16, 2015 $19.99N/A (N/A/67%)50,000 .. 100,0000%00:00 (00:00)
347 Legends of Callasia Jun 10, 2016 $14.99N/A (N/A)50,000 .. 100,0000%00:00 (00:00)
348 Disney Epic Mickey 2: The Power of Two Oct 6, 2014 $19.99N/A (N/A)20,000 .. 50,0002.7%00:02 (00:00)
349 Advanced Tactics Gold Aug 15, 2014 $9.89N/A (N/A)0 .. 20,0000%00:00 (00:00)
350 Heaven Forest NIGHTS Mar 13, 2017 $0.99N/A (N/A)100,000 .. 200,0000.2%00:48 (00:16)
351 Into the Void Dec 4, 2015 $4.99N/A (N/A)20,000 .. 50,0000%00:00 (00:00)
352 Anomaly 2 May 15, 2013 $14.99N/A (N/A/77%)200,000 .. 500,0000.15%00:48 (00:16)
353 Momodora III Jul 1, 2014 $1.99N/A (N/A)50,000 .. 100,0001.74%01:23 (00:55)
354 Fort Meow Jun 25, 2015 $7.99N/A (N/A)0 .. 20,0001.4%01:50 (01:13)
355 Knight Adventure Oct 15, 2015 $0.99N/A (N/A)50,000 .. 100,0000%00:00 (00:00)
356 Castle Werewolf 3D Feb 7, 2017 $2.99N/A (N/A)50,000 .. 100,0000.23%03:06 (01:02)
357 Jagged Alliance 2 - Wildfire Nov 16, 2012 $6.99N/A (N/A)500,000 .. 1,000,0000.28%04:55 (04:04)
358 Evopollution Apr 23, 2014 $4.99N/A (N/A)0 .. 20,0000%00:00 (00:00)
359 Tiamat X May 29, 2015 $1.99N/A (N/A)50,000 .. 100,0000%00:00 (00:00)
360 Little Big Adventure 2 Oct 20, 2015 $3.99N/A (N/A)20,000 .. 50,0000%00:00 (00:00)
361 VR Journey Dec 15, 2016 $2.99N/A (N/A)20,000 .. 50,0000.58%00:01 (00:00)
362 A Game of Dwarves Oct 23, 2012 $1.99N/A (N/A/60%)50,000 .. 100,0000.65%00:02 (00:00)
363 Freight Tycoon Inc. Apr 3, 2014 $4.99N/A (N/A)20,000 .. 50,0000%00:00 (00:00)
364 Urja Jan 9, 2015 $9.99N/A (N/A)20,000 .. 50,0000%00:00 (00:00)
365 Ninjahtic Mind Tricks Jul 16, 2015 $1.99N/A (N/A)0 .. 20,0000%00:00 (00:00)
366 Bulletstorm: Full Clip Edition Apr 7, 2017 $39.99N/A (N/A/76%)50,000 .. 100,0002.37%03:33 (02:51)
367 Swords and Soldiers HD Dec 2, 2010 $9.99N/A (N/A)100,000 .. 200,0000.16%15:35 (20:45)
368 Strategic War in Europe Mar 21, 2014 $14.99N/A (N/A)20,000 .. 50,0000%00:00 (00:00)
369 PixelJunk Shooter Ultimate Oct 21, 2015 $9.99N/A (N/A)20,000 .. 50,0000%00:00 (00:00)
370 Cross of the Dutchman Sep 10, 2015 $8.99N/A (N/A/59%)20,000 .. 50,0000%00:00 (00:00)
371 Mad Combat Marines Jul 13, 2016 $0.99N/A (N/A)20,000 .. 50,0001.3%00:01 (00:00)
372 Dead Rising 2: Off the Record Oct 11, 2011 $19.99N/A (N/A/66%)200,000 .. 500,0000.42%06:50 (06:35)
373 Mechs & Mercs: Black Talons Jan 9, 2015 $9.99N/A (N/A)0 .. 20,0005%00:02 (00:00)
374 Fallen: A2P Protocol Aug 14, 2015 $9.99N/A (N/A)20,000 .. 50,0000%00:00 (00:00)
375 Ground Breakers Jun 15, 2016 $0.99N/A (N/A)0 .. 20,0000%00:00 (00:00)
376 Magic Quest May 6, 2016 $1.99N/A (N/A)50,000 .. 100,0000%00:00 (00:00)
377 Tom Clancy's EndWar Feb 25, 2009 $9.99N/A (N/A/68%)100,000 .. 200,0000%00:00 (00:00)
378 Pixel Boy and the Ever Expanding Dungeon May 30, 2014 $0.99N/A (N/A)20,000 .. 50,0000%00:00 (00:00)
379 Wave of Darkness Nov 5, 2015 $29.99N/A (N/A)0 .. 20,0000%00:00 (00:00)
380 Riddled Corpses Jun 2, 2015 $7.99N/A (N/A)20,000 .. 50,0000%00:00 (00:00)
381 ALONE IN SPACE Feb 27, 2016 $9.99N/A (N/A)20,000 .. 50,0000%00:00 (00:00)
382 Advent Rising Sep 14, 2006 $9.99N/A (N/A/70%)50,000 .. 100,0000%00:00 (00:00)
383 Master Reboot Oct 29, 2013 $14.99N/A (N/A/59%)50,000 .. 100,0000%00:00 (00:00)
384 To End All Wars Aug 29, 2014 $9.99N/A (N/A/71%)0 .. 20,0000%00:00 (00:00)
385 N2O: Nitrous Oxide Jun 29, 2015 $4.99N/A (N/A)0 .. 20,0000%00:00 (00:00)
386 Neon Chrome Apr 28, 2016 $14.99N/A (N/A/74%)200,000 .. 500,0000.21%03:38 (01:12)
387 Ittle Dew Jul 23, 2013 $9.99N/A (N/A/67%)100,000 .. 200,0000%00:00 (00:00)
388 Civil War II Jul 3, 2014 $13.99N/A (N/A)20,000 .. 50,0000%00:00 (00:00)
389 Dungeon Warfare Nov 4, 2015 $9.99N/A (N/A)50,000 .. 100,0004.04%01:18 (01:44)
390 Junk Jack Nov 30, 2016 $14.99N/A (N/A)20,000 .. 50,0000%00:00 (00:00)
391 Retrovirus Jan 31, 2013 $9.99N/A (N/A/70%)20,000 .. 50,0000%00:00 (00:00)
392 Knightmare Tower Jun 16, 2014 $3.99N/A (N/A)0 .. 20,0000%00:00 (00:00)
393 PeriAreion Feb 19, 2015 $5.99N/A (N/A)0 .. 20,0000%00:00 (00:00)
394 Life in Bunker Feb 25, 2016 $15.99N/A (N/A)0 .. 20,0000%00:00 (00:00)
395 Cemetery Warrior 3 Feb 3, 2017 $0.99N/A (N/A)50,000 .. 100,0000%00:00 (00:00)
396 Tryst Sep 14, 2012 $14.99N/A (N/A/50%)0 .. 20,0000%00:00 (00:00)
397 Smugglers 5 Apr 11, 2014 $9.99N/A (N/A)20,000 .. 50,0000%00:00 (00:00)
398 Stay Dead Evolution Feb 4, 2015 $5.99N/A (N/A)20,000 .. 50,0000%00:00 (00:00)
399 WARSHIFT Oct 12, 2016 $12.99N/A (N/A)20,000 .. 50,0000%00:00 (00:00)
400 Zombo Buster Rising Oct 2, 2016 $1.99N/A (N/A)20,000 .. 50,0000%00:00 (00:00)
401 APOX Jan 20, 2011 $14.99N/A (N/A/48%)20,000 .. 50,0000%00:00 (00:00)
402 Hard Truck Apocalypse: Arcade / Ex Machina: Arcade Mar 14, 2014 $4.99N/A (N/A)20,000 .. 50,0000%00:00 (00:00)
403 Bloodsports.TV Mar 30, 2015 $9.99N/A (N/A/69%)100,000 .. 200,0000.4%00:01 (00:00)
404 Vampire of the Sands Jul 17, 2015 $4.99N/A (N/A)20,000 .. 50,0000%00:00 (00:00)
405 Zombie Apocalypse: Escape The Undead City Nov 25, 2013 $0.99N/A (N/A)0 .. 20,0000%00:00 (00:00)
406 Atom Zombie Smasher Mar 14, 2011 $9.99N/A (N/A/75%)200,000 .. 500,0000.23%00:38 (00:12)
407 Interplanetary May 12, 2015 N/AN/A (N/A)100,000 .. 200,0000.13%00:11 (00:03)
408 7th Legion Oct 23, 2014 $6.99N/A (N/A)0 .. 20,0000%00:00 (00:00)
409 Incandescent Jun 30, 2015 $0.99N/A (N/A)20,000 .. 50,0000%00:00 (00:00)
410 She Wants Me Dead May 13, 2016 $7.99N/A (N/A)0 .. 20,0007.69%00:09 (00:06)
411 LEGO Indiana Jones 2: The Adventure Continues Feb 18, 2010 $19.99N/A (N/A/66%)50,000 .. 100,0002.86%01:25 (00:56)
412 Ground Pounders Jul 15, 2014 $4.99N/A (N/A)0 .. 20,0000%00:00 (00:00)
413 Toren May 11, 2015 $9.99N/A (N/A/57%)50,000 .. 100,0000%00:00 (00:00)
414 Weapon of Choice Sep 23, 2015 $4.99N/A (N/A)0 .. 20,0000%00:00 (00:00)
415 Seven Kingdoms: Ancient Adversaries Jun 8, 1998 $5.99N/A (N/A)0 .. 20,0000%00:00 (00:00)
416 BC Kings Jun 16, 2009 $4.99N/A (N/A)20,000 .. 50,0000%00:00 (00:00)
417 Silent Storm Gold Edition Oct 2, 2013 $9.99N/A (N/A/83%)200,000 .. 500,0000%00:00 (00:00)
418 Zoo Rampage Jul 9, 2014 $3.99N/A (N/A)20,000 .. 50,0000%00:00 (00:00)
419 Close Combat - Panthers in the Fog Nov 19, 2012 $9.99N/A (N/A)0 .. 20,0000%00:00 (00:00)
420 Control Craft 2 Feb 15, 2016 $2.99N/A (N/A)0 .. 20,0000%00:00 (00:00)
421 Flashback Oct 1, 2013 $9.99N/A (N/A)20,000 .. 50,0003.03%01:26 (00:28)
422 The Way May 20, 2016 $14.99N/A (N/A/67%)100,000 .. 200,0000%00:00 (00:00)
423 Chronostorm: Siberian Border Apr 2, 2009 $0.99N/A (N/A)0 .. 20,0000%00:00 (00:00)
424 Elite vs. Freedom May 31, 2016 $4.99N/A (N/A)0 .. 20,0000%00:00 (00:00)
425 Battle Worlds: Kronos Nov 4, 2013 $19.99N/A (N/A/71%)20,000 .. 50,0000%00:00 (00:00)
426 Bloodbath Jun 16, 2014 $14.99N/A (N/A)0 .. 20,0000%00:00 (00:00)
427 Fair Strike Feb 5, 2004 $3.99N/A (N/A/56%)0 .. 20,0000%00:00 (00:00)
428 Run Rabbit Run Mar 31, 2016 $3.99N/A (N/A)0 .. 20,0000%00:00 (00:00)
429 Heroes of Arca Feb 16, 2017 FreeN/A (N/A)0 .. 20,0000%00:00 (00:00)
430 Gemini Wars Nov 2, 2012 $14.99N/A (N/A/53%)20,000 .. 50,0000%00:00 (00:00)
431 Brigade E5: New Jagged Union Apr 30, 2014 $3.99N/A (N/A/41%)0 .. 20,0000%00:00 (00:00)
432 CRYPTARK Jun 20, 2017 $14.99N/A (N/A/80%)50,000 .. 100,0000.95%00:47 (00:15)
433 Protoshift Jan 15, 2016 $0.99N/A (N/A)0 .. 20,0000%00:00 (00:00)
434 Double Dragon IV Jan 30, 2017 $6.99N/A (N/A/50%)0 .. 20,0000%00:00 (00:00)
435 Dungeons - The Dark Lord Sep 27, 2011 $19.99N/A (N/A/72%)100,000 .. 200,0000%00:00 (00:00)
436 Perimeter Apr 3, 2014 $3.99N/A (N/A/77%)20,000 .. 50,0000.68%00:54 (00:18)
437 Death Ray Manta SE Sep 17, 2015 $1.99N/A (N/A)20,000 .. 50,0000%00:00 (00:00)
438 Tic-Toc-Tower Sep 28, 2015 $2.99N/A (N/A)0 .. 20,0000%00:00 (00:00)
439 Star Project Aug 4, 2016 $1.99N/A (N/A)100,000 .. 200,0000%00:00 (00:00)
440 Delve Deeper Sep 24, 2010 $4.99N/A (N/A)50,000 .. 100,0000%00:00 (00:00)
441 The Campaign Series: Fall Weiss May 30, 2014 $2.99N/A (N/A)20,000 .. 50,0000%00:00 (00:00)
442 Battle Fleet 2 Nov 20, 2014 $14.99N/A (N/A)20,000 .. 50,0000%00:00 (00:00)
443 Zombie Party Jun 10, 2016 $9.99N/A (N/A)100,000 .. 200,0001.43%04:11 (01:23)
444 Smithy Jun 3, 2016 $3.99N/A (N/A)50,000 .. 100,0000%00:00 (00:00)
445 Star Wolves 3: Civil War Mar 2, 2010 $4.99N/A (N/A)100,000 .. 200,0000%00:00 (00:00)
446 Graviteam Tactics: Operation Star Feb 11, 2014 $29.99N/A (N/A)50,000 .. 100,0000%00:00 (00:00)
447 Fat Chicken Dec 4, 2014 $9.99N/A (N/A)0 .. 20,0000%00:00 (00:00)
448 Tiki Man Jun 4, 2015 $0.99N/A (N/A)20,000 .. 50,0000%00:00 (00:00)
449 Amaranthine Apr 6, 2016 $2.99N/A (N/A)0 .. 20,0000%00:00 (00:00)
450 Spectromancer Feb 11, 2009 $9.99N/A (N/A)20,000 .. 50,0000%00:00 (00:00)
451 Unearthed: Trail of Ibn Battuta - Episode 1 - Gold Edition Jan 3, 2014 $4.99N/A (N/A)20,000 .. 50,0001.82%00:15 (00:05)
452 Prophour23 Oct 22, 2014 $9.99N/A (N/A)20,000 .. 50,0000%00:00 (00:00)
453 Templar Battleforce Sep 21, 2015 $9.99N/A (N/A)20,000 .. 50,0000%00:00 (00:00)
454 Smell Of Death Jul 4, 2016 $9.99N/A (N/A)0 .. 20,0000%00:00 (00:00)
455 BloodRayne Sep 14, 2006 $9.99N/A (N/A/65%)50,000 .. 100,0000%00:00 (00:00)
456 Anomaly Warzone Earth Mobile Campaign Nov 6, 2013 $4.99N/A (N/A)100,000 .. 200,0000%00:00 (00:00)
457 Warhammer 40,000: Armageddon Nov 26, 2014 $9.59N/A (N/A/68%)50,000 .. 100,0002.38%00:01 (00:00)
458 Redemption: Saints And Sinners Nov 18, 2016 $0.99N/A (N/A)50,000 .. 100,0000%00:00 (00:00)
459 Super Helmets on Fire DX Ultra Edition Plus Alpha Feb 15, 2016 $0.99N/A (N/A)0 .. 20,0000%00:00 (00:00)
460 CastleStorm Jul 29, 2013 $9.99N/A (N/A/73%)100,000 .. 200,0000%00:00 (00:00)
461 Battle Academy 2: Eastern Front Sep 12, 2014 $9.99N/A (N/A/78%)0 .. 20,0000%00:00 (00:00)
462 Commander Cool 2 Dec 17, 2015 $2.99N/A (N/A)50,000 .. 100,0000%00:00 (00:00)
463 Corgi Warlock Dec 3, 2015 $0.99N/A (N/A)20,000 .. 50,0000%00:00 (00:00)
464 Risk Jun 10, 2013 $9.99N/A (N/A)20,000 .. 50,0000%00:00 (00:00)
465 Victory At Sea Aug 8, 2014 $24.99N/A (N/A)20,000 .. 50,0002.33%02:50 (00:56)
466 Burstfire Sep 24, 2015 N/AN/A (N/A)50,000 .. 100,0000.84%02:37 (00:52)
467 Darknet Jun 8, 2017 $14.99N/A (N/A)0 .. 20,0000%00:00 (00:00)
468 My Super Tower 2 Jan 27, 2017 $0.99N/A (N/A)50,000 .. 100,0000%00:00 (00:00)
469 Check vs Mate Aug 16, 2012 $19.99N/A (N/A/69%)20,000 .. 50,0000%00:00 (00:00)
470 NOBUNAGA'S AMBITION: Souzou (Traditional Chinese version) Aug 2014 $24.99N/A (N/A)20,000 .. 50,0005%00:24 (00:08)
471 Super Cyborg Jul 8, 2015 $4.99N/A (N/A)20,000 .. 50,0000%00:00 (00:00)
472 Sir! I'd Like To Report A Bug! Oct 19, 2015 $1.99N/A (N/A)0 .. 20,0000%00:00 (00:00)
473 MinosMaze - The Minotaur's Labyrinth May 1, 2017 $0.49N/A (N/A)0 .. 20,0000%00:00 (00:00)
474 Fate of the World Feb 28, 2011 $9.99N/A (N/A/70%)50,000 .. 100,0000%00:00 (00:00)
475 Disney Planes Aug 6, 2013 $19.99N/A (N/A)0 .. 20,0000%00:00 (00:00)
476 Outcast 1.1 Dec 18, 2014 $5.99N/A (N/A)50,000 .. 100,0000%00:00 (00:00)
477 Vendetta - Curse of Raven's Cry Nov 20, 2015 $29.99N/A (N/A)0 .. 20,0001.41%04:59 (01:39)
478 FIVE: Champions of Canaan Sep 27, 2016 $3.99N/A (N/A)20,000 .. 50,0000%00:00 (00:00)
479 Patrician IV - Steam Special Edition Sep 17, 2010 $3.99N/A (N/A/66%)100,000 .. 200,0000.41%01:27 (00:29)
480 Making History: The Great War Jan 29, 2015 $29.99N/A (N/A)20,000 .. 50,0000%00:00 (00:00)
481 Frozen Synapse Prime Nov 14, 2014 $24.99N/A (N/A/83%)50,000 .. 100,0000.35%04:02 (01:20)
482 Zombie Killtime Aug 4, 2015 $1.99N/A (N/A)0 .. 20,0000%00:00 (00:00)
483 Rocketbirds 2 Evolution Jan 26, 2017 $6.99N/A (N/A)20,000 .. 50,0000%00:00 (00:00)
484 Delta Force 2 Jun 18, 2009 $4.99N/A (N/A)50,000 .. 100,0000%00:00 (00:00)
485 Gun Metal Jan 16, 2014 $2.99N/A (N/A)200,000 .. 500,0000.13%07:13 (02:24)
486 Wickland Feb 6, 2015 $0.99N/A (N/A)50,000 .. 100,0000%00:00 (00:00)
487 Explosionade Sep 23, 2015 $3.99N/A (N/A)0 .. 20,0000%00:00 (00:00)
488 Assault on Arnhem Mar 11, 2016 $9.99N/A (N/A)0 .. 20,0000%00:00 (00:00)
489 Port Royale 2 Jun 16, 2009 $4.99N/A (N/A/75%)50,000 .. 100,0000%00:00 (00:00)
490 PixelJunk Shooter Nov 11, 2013 $8.99N/A (N/A/73%)100,000 .. 200,0000%00:00 (00:00)
491 Graviteam Tactics: Mius-Front Mar 4, 2016 $34.99N/A (N/A)0 .. 20,0000%00:00 (00:00)
492 htoL#NiQ: The Firefly Diary / htoL#NiQ-ホタルノニッキ- May 18, 2016 $9.99N/A (N/A)20,000 .. 50,0002.63%03:22 (01:07)
493 Banzai Escape Mar 16, 2016 $5.99N/A (N/A)20,000 .. 50,0000%00:00 (00:00)
494 Lords of the Black Sun Sep 12, 2014 $5.39N/A (N/A)20,000 .. 50,0000%00:00 (00:00)
495 Rulers of Nations Jul 16, 2014 $19.99N/A (N/A/63%)0 .. 20,0000%00:00 (00:00)
496 Weather Lord: The Successor's Path Apr 8, 2015 $4.99N/A (N/A)0 .. 20,0000%00:00 (00:00)
497 The Legend of Dark Witch Dec 1, 2015 $4.99N/A (N/A)20,000 .. 50,0000%00:00 (00:00)
498 Fist Puncher Jun 21, 2013 $9.99N/A (N/A/73%)20,000 .. 50,0000%00:00 (00:00)
499 Kick-Ass 2 Aug 15, 2014 $19.99N/A (N/A)20,000 .. 50,0000%00:00 (00:00)
500 Locoland Nov 22, 2003 $4.99N/A (N/A)0 .. 20,0000%00:00 (00:00)
501 Angry Video Game Nerd II: ASSimilation Mar 29, 2016 $9.99N/A (N/A)20,000 .. 50,00012.12%01:14 (00:38)
502 Defence to death May 11, 2017 $5.99N/A (N/A)20,000 .. 50,0000%00:00 (00:00)
503 Great Big War Game Aug 28, 2012 $6.99N/A (N/A)0 .. 20,0000%00:00 (00:00)
504 Magnetic By Nature Nov 10, 2014 $9.99N/A (N/A)0 .. 20,0000%00:00 (00:00)
505 Gratuitous Space Battles 2 Apr 16, 2015 $9.99N/A (N/A)20,000 .. 50,0000%00:00 (00:00)
506 Ace of Protectors Jun 27, 2016 $1.99N/A (N/A)20,000 .. 50,00014%03:52 (03:53)
507 reconquest Dec 16, 2016 $11.99N/A (N/A)0 .. 20,0000%00:00 (00:00)
508 Disciples III - Resurrection Oct 11, 2011 $14.99N/A (N/A/63%)100,000 .. 200,0000%00:00 (00:00)
509 Aggression: Europe Under Fire Apr 9, 2014 $9.99N/A (N/A)50,000 .. 100,0000%00:00 (00:00)
510 RESCUE 2: Everyday Heroes Jun 3, 2015 $24.99N/A (N/A)20,000 .. 50,0000%00:00 (00:00)
511 Rubber and Lead Sep 4, 2015 $4.99N/A (N/A)50,000 .. 100,0000.78%03:02 (01:00)
512 Zombie Camp Aug 1, 2016 N/AN/A (N/A)0 .. 20,0000%00:00 (00:00)
513 Fantasy Wars Aug 6, 2010 $4.99N/A (N/A/67%)50,000 .. 100,0000%00:00 (00:00)
514 Super Chibi Knight Jun 24, 2015 $4.99N/A (N/A)20,000 .. 50,0000%00:00 (00:00)
515 Kaiju-A-GoGo Apr 23, 2015 $9.99N/A (N/A)20,000 .. 50,0000%00:00 (00:00)
516 Umihara Kawase Shun: Steam Edition Nov 24, 2015 $11.99N/A (N/A)0 .. 20,0004.55%00:01 (00:00)
517 Pick a Hero Jun 9, 2016 $1.99N/A (N/A)0 .. 20,0000%00:00 (00:00)
518 Theatre of War 2: Africa 1943 Jul 9, 2010 $4.99N/A (N/A/63%)100,000 .. 200,0000%00:00 (00:00)
519 Z Steel Soldiers Aug 1, 2014 $12.99N/A (N/A)50,000 .. 100,0000%00:00 (00:00)
520 Clash of Puppets Dec 16, 2014 $4.99N/A (N/A)0 .. 20,0000%00:00 (00:00)
521 Alarameth TD Jun 23, 2015 $4.99N/A (N/A)0 .. 20,0000%00:00 (00:00)
522 Warhammer 40,000: Armageddon - Da Orks Aug 18, 2016 $4.99N/A (N/A)0 .. 20,00016.67%00:05 (00:01)
523 Earth Defense Force: Insect Armageddon Dec 14, 2011 $9.99N/A (N/A/69%)50,000 .. 100,0000%00:00 (00:00)
524 SPACECOM Sep 17, 2014 $9.99N/A (N/A/68%)100,000 .. 200,0000%00:00 (00:00)
525 Hunters Of The Dead Sep 4, 2014 $4.99N/A (N/A)20,000 .. 50,0000%00:00 (00:00)
526 Jim Power -The Lost Dimension Dec 10, 1993 $2.49N/A (N/A)0 .. 20,0000%00:00 (00:00)
527 Blade Arcus from Shining: Battle Arena Jul 28, 2016 $29.99N/A (N/A)0 .. 20,0000%00:00 (00:00)
528 CivCity: Rome Apr 6, 2007 $9.99N/A (N/A/67%)50,000 .. 100,0003.08%01:42 (00:59)
529 YAIBA: NINJA GAIDEN Z Mar 21, 2014 $29.99N/A (N/A/49%)20,000 .. 50,0000%00:00 (00:00)
530 Defense Zone Jul 14, 2014 $3.99N/A (N/A)0 .. 20,0000%00:00 (00:00)
531 Curse of the Crescent Isle DX Aug 21, 2015 $0.99N/A (N/A)0 .. 20,0000%00:00 (00:00)
532 Earn to Die 2 May 5, 2016 $4.99N/A (N/A)20,000 .. 50,0003.33%00:04 (00:01)
533 Guncraft Aug 9, 2013 $14.99N/A (N/A/73%)100,000 .. 200,0000%00:00 (00:00)
534 Will Fight for Food: Super Actual Sellout: Game of the Hour Apr 22, 2015 $4.99N/A (N/A)0 .. 20,0000%00:00 (00:00)
535 Cuban Missile Crisis May 6, 2005 $4.99N/A (N/A)20,000 .. 50,0000%00:00 (00:00)
536 Monster Monpiece Mar 14, 2017 $19.99N/A (N/A)0 .. 20,0001.32%02:00 (00:40)
537 Skulls of the Shogun Jul 29, 2013 $9.99N/A (N/A/72%)100,000 .. 200,0000.23%00:17 (00:05)
538 Orbital Gear Aug 7, 2014 $9.99N/A (N/A/59%)200,000 .. 500,0000.34%00:03 (00:01)
539 Supercharged Robot VULKAISER Jun 4, 2015 $4.99N/A (N/A)20,000 .. 50,0000%00:00 (00:00)
540 Sky To Fly: Faster Than Wind Mar 25, 2016 $3.99N/A (N/A)0 .. 20,0000%00:00 (00:00)
541 rooMaze Mar 3, 2017 $1.99N/A (N/A)100,000 .. 200,0000%00:00 (00:00)
542 Conflict Desert Storm May 28, 2012 $0.97N/A (N/A/56%)50,000 .. 100,0000.97%00:49 (00:16)
543 Elliot Quest Nov 10, 2014 $9.99N/A (N/A)20,000 .. 50,0000%00:00 (00:00)
544 Dustoff Heli Rescue Mar 6, 2015 $3.99N/A (N/A)20,000 .. 50,0000%00:00 (00:00)
545 Square Brawl Oct 22, 2015 $4.99N/A (N/A)0 .. 20,0000%00:00 (00:00)
546 Toadled Sep 22, 2016 $0.99N/A (N/A)50,000 .. 100,0000%00:00 (00:00)
547 A.R.E.S.: Extinction Agenda Jan 19, 2011 $4.99N/A (N/A/68%)100,000 .. 200,0000%00:00 (00:00)
548 TY the Tasmanian Tiger 4 Sep 17, 2015 $5.99N/A (N/A)20,000 .. 50,0000%00:00 (00:00)
549 Deadnaut Dec 8, 2014 $9.99N/A (N/A)0 .. 20,0000%00:00 (00:00)
550 Rise: Battle Lines Nov 17, 2015 N/AN/A (N/A)0 .. 20,0000%00:00 (00:00)
551 Ballistic Tanks Sep 20, 2016 $4.99N/A (N/A)0 .. 20,0000%00:00 (00:00)
552 Dungeons Feb 10, 2011 $9.99N/A (N/A/65%)200,000 .. 500,0000.38%00:58 (00:19)
553 Abalone Apr 23, 2014 $6.99N/A (N/A)0 .. 20,0000%00:00 (00:00)
554 4089: Ghost Within Jan 9, 2015 $5.99N/A (N/A)0 .. 20,0000%00:00 (00:00)
555 The Men of Yoshiwara: Kikuya Oct 15, 2015 $29.99N/A (N/A)0 .. 20,0000%00:00 (00:00)
556 Urban Pirate Jun 17, 2016 $6.99N/A (N/A)0 .. 20,0000%00:00 (00:00)
557 Disciples III - Renaissance Steam Special Edition Jul 16, 2010 $14.99N/A (N/A/56%)100,000 .. 200,0000%00:00 (00:00)
558 Antisquad May 22, 2014 $5.99N/A (N/A)50,000 .. 100,0000%00:00 (00:00)
559 War, the Game Jan 12, 2015 $6.99N/A (N/A/65%)20,000 .. 50,0001.18%00:25 (00:08)
560 Concealed Intent Aug 2, 2016 $14.99N/A (N/A)0 .. 20,0000%00:00 (00:00)
561 Ace of Seafood Apr 8, 2016 $11.99N/A (N/A)0 .. 20,0000%00:00 (00:00)
562 Prison Tycoon 3: Lockdown Jan 29, 2008 $9.99N/A (N/A)20,000 .. 50,0000%00:00 (00:00)
563 Jagged Alliance Flashback Oct 21, 2014 $19.99N/A (N/A)20,000 .. 50,0000%00:00 (00:00)
564 Alea Jacta Est Nov 4, 2014 $9.74N/A (N/A)20,000 .. 50,0000%00:00 (00:00)
565 Apocalypse: Party's Over May 30, 2016 N/AN/A (N/A)0 .. 20,0000%00:00 (00:00)
566 Story Of the Survivor Feb 17, 2016 $4.99N/A (N/A)50,000 .. 100,0000%00:00 (00:00)
567 Dominions 3: The Awakening Sep 10, 2013 $19.99N/A (N/A/82%)0 .. 20,0000%00:00 (00:00)
568 Battle Mages: Sign of Darkness Jul 24, 2014 $4.99N/A (N/A)20,000 .. 50,0000%00:00 (00:00)
569 The Living Dungeon Nov 2, 2015 $9.99N/A (N/A)0 .. 20,0000%00:00 (00:00)
570 Militia Dec 2, 2015 $5.99N/A (N/A)0 .. 20,0000%00:00 (00:00)
571 Citadels Jul 25, 2013 $14.99N/A (N/A/20%)20,000 .. 50,0000%00:00 (00:00)
572 Aeon Command Jul 3, 2014 $2.99N/A (N/A)20,000 .. 50,0000%00:00 (00:00)
573 Spirit of War Mar 12, 2015 $9.99N/A (N/A)20,000 .. 50,0000%00:00 (00:00)
574 Death by Game Show Jan 22, 2016 $9.99N/A (N/A)20,000 .. 50,0000%00:00 (00:00)
575 Tank Destroyer Mar 9, 2017 $0.5N/A (N/A)20,000 .. 50,0000.93%00:11 (00:03)
576 Eufloria HD Oct 14, 2014 $14.99N/A (N/A)100,000 .. 200,0000%00:00 (00:00)
577 Viktor Jun 13, 2014 $0.79N/A (N/A)20,000 .. 50,0002.08%00:01 (00:00)
578 David. Feb 16, 2015 $1.99N/A (N/A)50,000 .. 100,0000%00:00 (00:00)
579 Prospekt Feb 18, 2016 $9.99N/A (N/A/43%)20,000 .. 50,0000%00:00 (00:00)
580 Aegis Oct 6, 2016 $2.99N/A (N/A)0 .. 20,0000%00:00 (00:00)
581 Impire Feb 14, 2013 $19.99N/A (N/A/45%)100,000 .. 200,0000.59%01:45 (00:35)
582 Marauder Apr 4, 2014 $9.99N/A (N/A)50,000 .. 100,0000%00:00 (00:00)
583 Headlander Jul 25, 2016 $19.99N/A (N/A/74%)50,000 .. 100,0001.85%02:06 (02:56)
584 Little King's Story Aug 5, 2016 $19.99N/A (N/A/62%)0 .. 20,0000%00:00 (00:00)
585 The Superfluous May 19, 2017 $4.99N/A (N/A)0 .. 20,0000%00:00 (00:00)
586 Men of War: Vietnam Sep 8, 2011 $7.99N/A (N/A/68%)100,000 .. 200,0001.33%00:59 (00:29)
587 Battleplan: American Civil War Jul 4, 2014 $9.99N/A (N/A/66%)100,000 .. 200,0000.37%01:35 (01:03)
588 Fortified Feb 3, 2016 $14.99N/A (N/A)500,000 .. 1,000,0000.83%02:49 (03:28)
589 Dead But Alive! Southern England Oct 2, 2015 $14.99N/A (N/A)0 .. 20,0000%00:00 (00:00)
590 Syrian Warfare Feb 21, 2017 $13.99N/A (N/A)100,000 .. 200,0002.99%18:34 (12:22)
591 Theatre of War 2: Kursk 1943 Jul 9, 2010 $4.99N/A (N/A)50,000 .. 100,0000%00:00 (00:00)
592 Z Jul 4, 2014 $6.99N/A (N/A)100,000 .. 200,0000.43%00:05 (00:03)
593 Viking Squad Oct 4, 2016 $14.99N/A (N/A)0 .. 20,0000%00:00 (00:00)
594 Biodrone Battle Jul 16, 2015 $1.99N/A (N/A)100,000 .. 200,0000%00:00 (00:00)
595 Odd||Even Apr 6, 2016 $0.99N/A (N/A)20,000 .. 50,0000.86%01:29 (00:29)
596 King Arthur - The Role-playing Wargame Nov 24, 2009 $2.49N/A (N/A)200,000 .. 500,0001.39%00:36 (00:24)
597 Wyv and Keep: The Temple of the Lost Idol Aug 8, 2014 $14.99N/A (N/A)20,000 .. 50,0000%00:00 (00:00)
598 Malebolgia May 6, 2015 $12.99N/A (N/A)20,000 .. 50,0000%00:00 (00:00)
599 Demons with Shotguns Apr 25, 2016 $9.99N/A (N/A)0 .. 20,0000%00:00 (00:00)
600 Onechanbara Z2: Chaos Jun 2, 2016 $39.99N/A (N/A)0 .. 20,0000%00:00 (00:00)
601 Civilization IV: Warlords Jul 24, 2006 $4.99N/A (N/A/84%)1,000,000 .. 2,000,0000%00:00 (00:00)
602 Zombie Tycoon 2: Brainhov's Revenge Dec 9, 2013 $4.99N/A (N/A)50,000 .. 100,0000%00:00 (00:00)
603 Hell Nov 13, 2014 $9.89N/A (N/A)0 .. 20,0000%00:00 (00:00)
604 TASTEE: Lethal Tactics May 10, 2016 $14.99N/A (N/A)20,000 .. 50,0001.25%00:18 (00:06)
605 Phoning Home Feb 7, 2017 $19.99N/A (N/A/61%)20,000 .. 50,0004.3%00:45 (00:49)
606 In Verbis Virtus Apr 3, 2015 $19.99N/A (N/A)50,000 .. 100,0000.65%00:17 (00:05)
607 Nux Aug 15, 2014 $6.99N/A (N/A)100,000 .. 200,0000%00:00 (00:00)
608 Interloper May 21, 2015 FreeN/A (N/A/77%)50,000 .. 100,0000%00:00 (00:00)
609 Goblin Defenders: Steel‘n’ Wood Aug 21, 2013 $2.99N/A (N/A)20,000 .. 50,0000%00:00 (00:00)
610 ShootMania Storm Apr 10, 2013 $19.99N/A (N/A/76%)50,000 .. 100,0001.45%00:10 (00:03)
611 Warrior Kings: Battles May 6, 2014 $9.99N/A (N/A/64%)20,000 .. 50,0000%00:00 (00:00)
612 No Pineapple Left Behind Feb 18, 2016 $6.99N/A (N/A/59%)0 .. 20,0000%00:00 (00:00)
613 The Political Machine 2016 Feb 4, 2016 $9.99N/A (N/A)50,000 .. 100,0000.59%00:38 (00:12)
614 Pain Train Jan 11, 2017 $4.99N/A (N/A)100,000 .. 200,0007.57%02:54 (03:36)
615 Conquest of Elysium 3 Oct 24, 2012 $9.99N/A (N/A)20,000 .. 50,0000%00:00 (00:00)
616 Spice Road Apr 24, 2014 $19.99N/A (N/A)0 .. 20,0000%00:00 (00:00)
617 HitBox Jan 30, 2017 FreeN/A (N/A)20,000 .. 50,0000%00:00 (00:00)
618 Miracle Fly Oct 26, 2015 $7.99N/A (N/A)20,000 .. 50,0000%00:00 (00:00)
619 Romance of the Three Kingdoms Ⅴ with Power Up Kit / 三國志Ⅴ with パワーアップキット Apr 18, 2017 $19.99N/A (N/A)0 .. 20,0000%00:00 (00:00)
620 Kohan: Ahriman's Gift Nov 6, 2001 $9.99N/A (N/A/79%)0 .. 20,0000%00:00 (00:00)
621 8-Bit Commando Jun 2, 2014 $3.99N/A (N/A)50,000 .. 100,0000%00:00 (00:00)
622 Velocity 2X Aug 19, 2015 $19.99N/A (N/A)50,000 .. 100,0000%00:00 (00:00)
623 Cashtronauts Aug 31, 2016 $2.99N/A (N/A)0 .. 20,0000%00:00 (00:00)
624 Ranger of the jungle Jul 16, 2016 $3.99N/A (N/A)0 .. 20,0000%00:00 (00:00)

Tags over time:

Access restricted.

This feature is only available to users with special access rights. Sorry.

If you want to proceed, you need to register or log in first and then back Steam Spy on Patreon. Look for Indie or Pro pledge.

Don't forget to use the same email as on Steam Spy!

Owners of this game also own:

Access restricted.

This feature is only available to users with special access rights. Sorry.

If you want to proceed, you need to register or log in first and then back Steam Spy on Patreon. Look for Indie or Pro pledge.

Don't forget to use the same email as on Steam Spy!

Playtime distribution:

Access restricted.

This feature is only available to users with special access rights. Sorry.

If you want to proceed, you need to register or log in first and then back Steam Spy on Patreon. Look for Indie or Pro pledge.

Don't forget to use the same email as on Steam Spy!

Playtime (2 weeks):

Access restricted.

This feature is only available to users with special access rights. Sorry.

If you want to proceed, you need to register or log in first and then back Steam Spy on Patreon. Look for Indie or Pro pledge.

Don't forget to use the same email as on Steam Spy!

User reviews:

Login required.

Please register or log in to see this information.